Time;durP1;ratioP1;P1;durP2;ratioP2;P2;SDS_P1;SDS_P2;PMS_P1;PMS_P2;Temp;Humidity;BMP_temperature;BMP_pressure;BME280_temperature;BME280_humidity;BME280_pressure;Samples;Min_cycle;Max_cycle;Signal;HPM_P1;HPM_P2
2022/08/17 00:01:59;;;;;;;;;;;19.50;99.90;;;;;;5074252;28;19920;-72
2022/08/17 00:04:24;;;;;;;;;;;19.50;99.90;;;;;;5075642;28;20223;-72
2022/08/17 00:06:52;;;;;;;;;;;19.50;99.90;;;;;;5066495;28;19927;-72
2022/08/17 00:09:17;;;;;;;;;;;19.50;99.90;;;;;;5073902;28;19916;-72
2022/08/17 00:11:43;;;;;;;;;;;19.50;99.90;;;;;;5073845;28;20303;-73
2022/08/17 00:14:14;;;;;;;;;;;19.50;99.90;;;;;;5071815;28;19920;-73
2022/08/17 00:16:44;;;;;;;;;;;19.50;99.90;;;;;;5104451;28;20371;-72
2022/08/17 00:19:11;;;;;;;;;;;19.50;99.90;;;;;;5072722;28;19946;-72
2022/08/17 00:21:38;;;;;;;;;;;19.60;99.90;;;;;;5073567;28;20429;-73
2022/08/17 00:24:04;;;;;;;;;;;19.60;99.90;;;;;;5072728;28;19919;-72
2022/08/17 00:26:29;;;;;;;;;;;19.60;99.90;;;;;;5072258;28;19920;-72
2022/08/17 00:28:55;;;;;;;;;;;19.60;99.90;;;;;;5074370;28;19912;-72
2022/08/17 00:31:21;;;;;;;;;;;19.60;99.90;;;;;;5073409;28;19912;-72
2022/08/17 00:33:47;;;;;;;;;;;19.60;99.90;;;;;;5071792;28;20319;-72
2022/08/17 00:36:13;;;;;;;;;;;19.70;99.90;;;;;;5073128;28;19916;-72
2022/08/17 00:38:39;;;;;;;;;;;19.80;99.90;;;;;;5073956;28;19924;-72
2022/08/17 00:41:07;;;;;;;;;;;19.80;99.90;;;;;;5073934;28;19909;-72
2022/08/17 00:43:40;;;;;;;;;;;19.60;99.90;;;;;;5073456;28;20007;-71
2022/08/17 00:46:08;;;;;;;;;;;19.60;99.90;;;;;;5071215;28;19923;-72
2022/08/17 00:48:34;;;;;;;;;;;19.60;99.90;;;;;;5072340;28;19916;-72
2022/08/17 00:51:08;;;;;;;;;;;19.50;99.90;;;;;;5073894;28;19919;-73
2022/08/17 00:53:36;;;;;;;;;;;19.50;99.90;;;;;;5073302;28;20222;-73
2022/08/17 00:56:03;;;;;;;;;;;19.50;99.90;;;;;;5067327;28;19932;-72
2022/08/17 00:58:29;;;;;;;;;;;19.50;99.90;;;;;;5081729;28;19917;-72
2022/08/17 01:00:55;;;;;;;;;;;19.40;99.90;;;;;;5070659;28;20215;-73
2022/08/17 01:03:24;;;;;;;;;;;19.40;99.90;;;;;;5069456;28;19917;-72
2022/08/17 01:05:51;;;;;;;;;;;19.40;99.90;;;;;;5070597;28;19920;-72
2022/08/17 01:08:18;;;;;;;;;;;19.50;99.90;;;;;;5071436;28;20330;-72
2022/08/17 01:10:46;;;;;;;;;;;19.50;99.90;;;;;;5072189;28;19912;-73
2022/08/17 01:13:12;;;;;;;;;;;19.40;99.90;;;;;;5100671;28;20296;-72
2022/08/17 01:15:40;;;;;;;;;;;19.50;99.90;;;;;;5073762;28;19916;-72
2022/08/17 01:18:06;;;;;;;;;;;19.50;99.90;;;;;;5073640;28;19978;-72
2022/08/17 01:20:32;;;;;;;;;;;19.50;99.90;;;;;;5081066;28;19940;-72
2022/08/17 01:22:58;;;;;;;;;;;19.50;99.90;;;;;;5071101;28;19916;-72
2022/08/17 01:25:24;;;;;;;;;;;19.60;99.90;;;;;;5070625;28;19991;-72
2022/08/17 01:27:50;;;;;;;;;;;19.60;99.90;;;;;;5103080;28;20011;-72
2022/08/17 01:30:16;;;;;;;;;;;19.50;99.90;;;;;;5072501;28;19916;-72
2022/08/17 01:32:41;;;;;;;;;;;19.50;99.90;;;;;;5071492;28;19917;-73
2022/08/17 01:35:07;;;;;;;;;;;19.40;99.90;;;;;;5072766;28;19919;-73
2022/08/17 01:37:39;;;;;;;;;;;19.40;99.90;;;;;;5073394;28;19917;-73
2022/08/17 01:40:11;;;;;;;;;;;19.40;99.90;;;;;;5071554;28;20257;-73
2022/08/17 01:42:43;;;;;;;;;;;19.40;99.90;;;;;;5068041;28;19923;-73
2022/08/17 01:45:21;;;;;;;;;;;19.30;99.90;;;;;;5064192;28;19920;-75
2022/08/17 01:47:48;;;;;;;;;;;19.30;99.90;;;;;;5071145;28;19923;-75
2022/08/17 01:50:16;;;;;;;;;;;19.20;99.90;;;;;;5072062;28;19935;-74
2022/08/17 01:52:42;;;;;;;;;;;19.30;99.90;;;;;;5070994;28;19912;-75
2022/08/17 01:55:09;;;;;;;;;;;19.30;99.90;;;;;;5070681;28;19927;-75
2022/08/17 01:57:34;;;;;;;;;;;19.40;99.90;;;;;;5069952;28;19919;-75
2022/08/17 02:00:00;;;;;;;;;;;19.30;99.90;;;;;;5068574;28;19913;-74
2022/08/17 02:02:26;;;;;;;;;;;19.30;99.90;;;;;;5073890;28;19970;-74
2022/08/17 02:04:51;;;;;;;;;;;19.40;99.90;;;;;;5070647;28;21921;-74
2022/08/17 02:07:17;;;;;;;;;;;19.40;99.90;;;;;;5070444;28;19948;-74
2022/08/17 02:09:42;;;;;;;;;;;19.30;99.90;;;;;;5071958;28;19920;-74
2022/08/17 02:12:08;;;;;;;;;;;19.40;99.90;;;;;;5071286;28;19920;-74
2022/08/17 02:14:33;;;;;;;;;;;19.50;99.90;;;;;;5072492;28;19912;-75
2022/08/17 02:16:59;;;;;;;;;;;19.50;99.90;;;;;;5101639;28;19932;-75
2022/08/17 02:19:25;;;;;;;;;;;19.50;99.90;;;;;;5071135;28;19918;-75
2022/08/17 02:21:52;;;;;;;;;;;19.70;99.90;;;;;;5069006;28;19913;-75
2022/08/17 02:24:20;;;;;;;;;;;19.90;99.90;;;;;;5071442;28;19916;-75
2022/08/17 02:26:46;;;;;;;;;;;19.90;99.90;;;;;;5070078;28;19916;-80
2022/08/17 02:29:13;;;;;;;;;;;19.90;99.90;;;;;;5069006;28;19916;-76
2022/08/17 02:31:38;;;;;;;;;;;19.90;99.90;;;;;;5071179;28;20027;-79
2022/08/17 02:34:05;;;;;;;;;;;19.80;99.90;;;;;;5071470;28;20004;-78
2022/08/17 02:36:34;;;;;;;;;;;19.70;99.90;;;;;;5071559;28;19912;-77
2022/08/17 02:39:00;;;;;;;;;;;19.60;99.90;;;;;;5073489;28;20296;-77
2022/08/17 02:41:26;;;;;;;;;;;19.60;99.90;;;;;;5071855;28;19918;-76
2022/08/17 02:43:52;;;;;;;;;;;19.50;99.90;;;;;;5073126;28;19995;-77
2022/08/17 02:46:18;;;;;;;;;;;19.50;99.90;;;;;;5070878;28;20008;-77
2022/08/17 02:48:43;;;;;;;;;;;19.60;99.90;;;;;;5073689;28;19958;-78
2022/08/17 02:51:09;;;;;;;;;;;19.60;99.90;;;;;;5076269;28;19913;-76
2022/08/17 02:53:35;;;;;;;;;;;19.60;99.90;;;;;;5075933;28;20327;-77
2022/08/17 02:56:00;;;;;;;;;;;19.50;99.90;;;;;;5077265;28;20215;-79
2022/08/17 02:58:26;;;;;;;;;;;19.60;99.90;;;;;;5072756;28;19955;-78
2022/08/17 03:00:51;;;;;;;;;;;19.60;99.90;;;;;;5105635;28;19939;-78
2022/08/17 03:03:20;;;;;;;;;;;19.50;99.90;;;;;;5107474;28;19916;-80
2022/08/17 03:05:47;;;;;;;;;;;19.50;99.90;;;;;;5068542;28;19922;-79
2022/08/17 03:08:13;;;;;;;;;;;19.50;99.90;;;;;;5071604;28;19951;-79
2022/08/17 03:10:40;;;;;;;;;;;19.40;99.90;;;;;;5104101;28;19973;-79
2022/08/17 03:13:05;;;;;;;;;;;19.40;99.90;;;;;;5072038;28;19919;-78
2022/08/17 03:15:32;;;;;;;;;;;19.40;99.90;;;;;;5063047;28;19913;-77
2022/08/17 03:17:58;;;;;;;;;;;19.30;99.90;;;;;;5069005;28;19924;-77
2022/08/17 03:20:25;;;;;;;;;;;19.30;99.90;;;;;;5072549;28;19919;-77
2022/08/17 03:22:51;;;;;;;;;;;19.30;99.90;;;;;;5075613;28;20449;-76
2022/08/17 03:25:18;;;;;;;;;;;19.30;99.90;;;;;;5070199;28;19920;-78
2022/08/17 03:27:44;;;;;;;;;;;19.30;99.90;;;;;;5074516;28;20266;-78
2022/08/17 03:30:11;;;;;;;;;;;19.40;99.90;;;;;;5075195;28;19935;-83
2022/08/17 03:32:38;;;;;;;;;;;19.30;99.90;;;;;;5074536;28;19969;-75
2022/08/17 03:35:04;;;;;;;;;;;19.30;99.90;;;;;;5070422;28;19919;-76
2022/08/17 03:37:30;;;;;;;;;;;19.30;99.90;;;;;;5073486;28;19912;-76
2022/08/17 03:39:55;;;;;;;;;;;19.30;99.90;;;;;;5070426;28;20322;-77
2022/08/17 03:42:25;;;;;;;;;;;19.30;99.90;;;;;;5063481;28;19916;-75
2022/08/17 03:44:51;;;;;;;;;;;19.30;99.90;;;;;;5073077;28;19913;-73
2022/08/17 03:58:15;;;;;;;;;;;19.30;99.90;;;;;;5071298;28;20302;-74
2022/08/17 04:00:45;;;;;;;;;;;19.30;99.90;;;;;;5075595;28;19920;-73
2022/08/17 04:03:11;;;;;;;;;;;19.20;99.90;;;;;;5075811;28;19913;-75
2022/08/17 04:05:36;;;;;;;;;;;19.30;99.90;;;;;;5072525;28;20015;-74
2022/08/17 04:08:02;;;;;;;;;;;19.20;99.90;;;;;;5072711;28;20364;-75
2022/08/17 04:10:29;;;;;;;;;;;19.20;99.90;;;;;;5075081;28;19919;-74
2022/08/17 04:12:54;;;;;;;;;;;19.10;99.90;;;;;;5069516;28;20307;-75
2022/08/17 04:15:21;;;;;;;;;;;19.00;99.90;;;;;;5075234;28;19909;-76
2022/08/17 04:17:46;;;;;;;;;;;19.00;99.90;;;;;;5073352;28;19920;-75
2022/08/17 04:20:13;;;;;;;;;;;19.00;99.90;;;;;;5072567;28;19924;-75
2022/08/17 04:22:53;;;;;;;;;;;19.10;99.90;;;;;;5075132;28;19958;-80
2022/08/17 04:25:19;;;;;;;;;;;19.10;99.90;;;;;;5073842;28;19920;-79
2022/08/17 04:27:44;;;;;;;;;;;19.10;99.90;;;;;;5070513;28;19928;-76
2022/08/17 04:30:11;;;;;;;;;;;19.10;99.90;;;;;;5011448;28;19916;-73
2022/08/17 04:32:59;;;;;;;;;;;18.90;99.90;;;;;;5018703;28;19912;-76
2022/08/17 04:35:26;;;;;;;;;;;18.90;99.90;;;;;;5004049;28;19997;-77
2022/08/17 04:37:52;;;;;;;;;;;18.90;99.90;;;;;;5010484;28;20046;-77
2022/08/17 04:43:04;;;;;;;;;;;18.90;99.90;;;;;;5009730;28;19928;-76
2022/08/17 04:45:30;;;;;;;;;;;19.00;99.90;;;;;;5041340;28;20532;-76
2022/08/17 04:47:55;;;;;;;;;;;19.00;99.90;;;;;;5009714;28;20357;-74
2022/08/17 04:50:21;;;;;;;;;;;19.10;99.90;;;;;;5000811;28;20479;-76
2022/08/17 04:52:46;;;;;;;;;;;19.10;99.90;;;;;;5006479;28;20789;-76
2022/08/17 04:55:13;;;;;;;;;;;19.10;99.90;;;;;;5007484;28;20323;-77
2022/08/17 04:57:39;;;;;;;;;;;19.10;99.90;;;;;;5009307;28;20465;-72
2022/08/17 05:00:05;;;;;;;;;;;19.20;99.90;;;;;;5008359;28;19916;-74
2022/08/17 05:02:31;;;;;;;;;;;19.10;99.90;;;;;;5011226;28;19923;-72
2022/08/17 05:04:57;;;;;;;;;;;19.00;99.90;;;;;;5010895;28;20362;-74
2022/08/17 05:07:22;;;;;;;;;;;18.90;99.90;;;;;;5005783;28;19917;-74
2022/08/17 05:09:48;;;;;;;;;;;18.90;99.90;;;;;;5006798;28;19924;-73
2022/08/17 05:12:14;;;;;;;;;;;18.90;99.90;;;;;;5007847;28;19917;-74
2022/08/17 05:14:40;;;;;;;;;;;19.00;99.90;;;;;;5010746;28;20342;-76
2022/08/17 05:17:05;;;;;;;;;;;19.00;99.90;;;;;;5008397;28;19924;-78
2022/08/17 05:19:31;;;;;;;;;;;19.10;99.90;;;;;;5006542;28;20207;-82
2022/08/17 05:21:56;;;;;;;;;;;19.00;99.90;;;;;;5007465;28;19942;-76
2022/08/17 05:24:22;;;;;;;;;;;19.20;99.90;;;;;;5007965;28;20002;-76
2022/08/17 05:26:47;;;;;;;;;;;19.20;99.90;;;;;;5007936;28;19948;-77
2022/08/17 05:29:13;;;;;;;;;;;19.30;99.90;;;;;;5006911;28;19920;-75
2022/08/17 05:31:39;;;;;;;;;;;19.30;99.90;;;;;;5010821;28;19921;-76
2022/08/17 05:34:04;;;;;;;;;;;19.30;99.90;;;;;;5008070;28;19916;-79
2022/08/17 05:36:30;;;;;;;;;;;19.30;99.90;;;;;;5011680;28;19923;-79
2022/08/17 05:38:55;;;;;;;;;;;19.20;99.90;;;;;;5007521;28;20728;-76
2022/08/17 05:41:21;;;;;;;;;;;19.20;99.90;;;;;;5007272;28;19916;-75
2022/08/17 05:43:46;;;;;;;;;;;19.10;99.90;;;;;;5009210;28;20251;-75
2022/08/17 05:46:12;;;;;;;;;;;19.10;99.90;;;;;;5006933;28;19963;-78
2022/08/17 05:48:43;;;;;;;;;;;19.10;99.90;;;;;;5009393;28;20441;-76
2022/08/17 05:51:20;;;;;;;;;;;19.10;99.90;;;;;;5007697;28;19925;-76
2022/08/17 05:54:08;;;;;;;;;;;19.20;99.90;;;;;;5008118;28;19955;-76
2022/08/17 05:56:34;;;;;;;;;;;19.20;99.90;;;;;;5008002;28;20645;-79
2022/08/17 05:59:02;;;;;;;;;;;19.30;99.90;;;;;;5009450;28;19990;-74
2022/08/17 06:01:40;;;;;;;;;;;19.30;99.90;;;;;;5008859;28;19939;-75
2022/08/17 06:04:21;;;;;;;;;;;19.40;99.90;;;;;;5007753;28;19935;-79
2022/08/17 06:06:47;;;;;;;;;;;19.40;99.90;;;;;;5023268;28;20003;-75
2022/08/17 06:09:12;;;;;;;;;;;19.50;99.90;;;;;;5007096;28;19939;-76
2022/08/17 06:11:44;;;;;;;;;;;19.60;99.90;;;;;;5007884;28;20440;-76
2022/08/17 06:14:12;;;;;;;;;;;19.70;99.90;;;;;;5007625;28;19948;-77
2022/08/17 06:16:39;;;;;;;;;;;19.70;99.90;;;;;;5019930;28;19928;-74
2022/08/17 06:19:10;;;;;;;;;;;19.80;99.90;;;;;;5009003;28;19917;-79
2022/08/17 06:21:38;;;;;;;;;;;19.90;99.90;;;;;;5011017;28;19916;-76
2022/08/17 06:24:27;;;;;;;;;;;20.10;99.90;;;;;;5008316;28;20455;-75
2022/08/17 06:26:54;;;;;;;;;;;20.30;99.90;;;;;;5000715;28;19920;-75
2022/08/17 06:29:35;;;;;;;;;;;20.50;99.90;;;;;;5014087;28;20562;-74
2022/08/17 06:32:02;;;;;;;;;;;20.50;99.90;;;;;;5009912;28;20011;-76
2022/08/17 06:34:28;;;;;;;;;;;20.60;99.90;;;;;;5010838;28;20628;-74
2022/08/17 06:37:14;;;;;;;;;;;20.70;99.90;;;;;;5011453;28;20278;-73
2022/08/17 06:40:00;;;;;;;;;;;20.70;99.90;;;;;;5010014;28;20027;-72
2022/08/17 06:42:43;;;;;;;;;;;20.70;99.90;;;;;;5011785;28;20935;-74
2022/08/17 06:45:13;;;;;;;;;;;20.70;99.90;;;;;;5015417;28;19921;-72
2022/08/17 06:47:46;;;;;;;;;;;20.60;99.90;;;;;;5013524;28;19916;-76
2022/08/17 06:50:20;;;;;;;;;;;20.50;99.90;;;;;;5010949;28;19916;-75
2022/08/17 06:52:52;;;;;;;;;;;20.50;99.90;;;;;;5011670;28;19930;-75
2022/08/17 06:55:25;;;;;;;;;;;20.40;99.90;;;;;;5011867;28;19920;-74
2022/08/17 06:57:52;;;;;;;;;;;20.40;99.90;;;;;;5012751;28;20011;-72
2022/08/17 07:00:21;;;;;;;;;;;20.40;99.90;;;;;;5011270;28;20338;-73
2022/08/17 07:03:11;;;;;;;;;;;20.50;99.90;;;;;;5009227;28;19920;-72
2022/08/17 07:05:41;;;;;;;;;;;20.70;99.90;;;;;;5009917;28;19973;-76
2022/08/17 07:08:17;;;;;;;;;;;20.80;99.90;;;;;;5009628;28;19927;-74
2022/08/17 07:10:47;;;;;;;;;;;20.90;99.90;;;;;;5010416;28;19985;-73
2022/08/17 07:13:18;;;;;;;;;;;21.10;99.90;;;;;;5043846;28;19932;-72
2022/08/17 07:15:45;;;;;;;;;;;21.10;99.90;;;;;;5008128;28;19925;-72
2022/08/17 07:18:10;;;;;;;;;;;21.20;99.90;;;;;;5011565;28;19960;-72
2022/08/17 07:20:41;;;;;;;;;;;21.20;99.90;;;;;;5011229;28;20011;-72
2022/08/17 07:23:19;;;;;;;;;;;21.20;99.90;;;;;;5006883;28;19917;-75
2022/08/17 07:25:45;;;;;;;;;;;21.20;99.90;;;;;;5012358;28;20022;-72
2022/08/17 07:28:11;;;;;;;;;;;21.20;99.90;;;;;;5019170;28;19969;-71
2022/08/17 07:30:44;;;;;;;;;;;21.10;99.90;;;;;;5008428;28;19995;-75
2022/08/17 07:33:16;;;;;;;;;;;21.10;99.90;;;;;;5011233;28;19921;-74
2022/08/17 07:35:43;;;;;;;;;;;21.10;99.90;;;;;;5005394;28;19956;-76
2022/08/17 07:38:09;;;;;;;;;;;21.10;99.90;;;;;;5045831;28;19916;-73
2022/08/17 07:40:36;;;;;;;;;;;21.00;99.90;;;;;;5012425;28;19969;-75
2022/08/17 07:43:05;;;;;;;;;;;21.00;99.90;;;;;;5009390;28;20261;-75
2022/08/17 07:48:18;;;;;;;;;;;21.00;99.90;;;;;;5014401;28;19922;-72
2022/08/17 07:50:43;;;;;;;;;;;21.00;99.90;;;;;;5009899;28;19917;-75
2022/08/17 07:53:21;;;;;;;;;;;21.00;99.90;;;;;;5007495;28;20755;-74
2022/08/17 07:55:49;;;;;;;;;;;21.00;99.90;;;;;;5015386;28;19970;-75
2022/08/17 07:58:19;;;;;;;;;;;21.00;99.90;;;;;;5016950;28;20295;-75
2022/08/17 08:00:45;;;;;;;;;;;21.00;99.90;;;;;;5011651;28;19920;-75
2022/08/17 08:03:26;;;;;;;;;;;21.00;99.90;;;;;;5052906;28;20046;-74
2022/08/17 08:05:56;;;;;;;;;;;21.10;99.90;;;;;;5013277;28;19921;-75
2022/08/17 08:08:33;;;;;;;;;;;21.10;99.90;;;;;;5009265;28;20004;-74
2022/08/17 08:11:05;;;;;;;;;;;21.10;99.90;;;;;;5013425;28;20219;-74
2022/08/17 08:13:31;;;;;;;;;;;21.20;99.90;;;;;;5010703;28;19916;-75
2022/08/17 08:16:14;;;;;;;;;;;21.20;99.90;;;;;;4935718;28;2267171;-75
2022/08/17 08:18:44;;;;;;;;;;;21.10;99.90;;;;;;5011210;28;20853;-74
2022/08/17 08:21:27;;;;;;;;;;;21.20;99.90;;;;;;5026885;28;20750;-74
2022/08/17 08:24:11;;;;;;;;;;;21.20;99.90;;;;;;5011790;28;19958;-75
2022/08/17 08:26:45;;;;;;;;;;;21.20;99.90;;;;;;5010798;28;19920;-77
2022/08/17 08:29:21;;;;;;;;;;;21.30;99.90;;;;;;5011485;28;19956;-74
2022/08/17 08:31:50;;;;;;;;;;;21.30;99.90;;;;;;5013788;28;19916;-73
2022/08/17 08:34:28;;;;;;;;;;;21.40;99.90;;;;;;5014018;28;20226;-77
2022/08/17 08:37:12;;;;;;;;;;;21.40;99.90;;;;;;5010690;28;20398;-74
2022/08/17 08:39:44;;;;;;;;;;;21.40;99.90;;;;;;5010436;28;20001;-72
2022/08/17 08:42:36;;;;;;;;;;;21.40;99.90;;;;;;5006507;28;19967;-73
2022/08/17 08:45:08;;;;;;;;;;;21.30;99.90;;;;;;5010199;28;19969;-74
2022/08/17 08:47:52;;;;;;;;;;;21.30;99.90;;;;;;5008093;28;19973;-74
2022/08/17 08:50:30;;;;;;;;;;;21.30;99.90;;;;;;5020569;28;19946;-77
2022/08/17 08:52:59;;;;;;;;;;;21.20;99.90;;;;;;5007276;28;19943;-72
2022/08/17 08:55:42;;;;;;;;;;;21.30;99.90;;;;;;5009692;28;19921;-78
2022/08/17 08:58:13;;;;;;;;;;;21.30;99.90;;;;;;5007636;28;20806;-72
2022/08/17 09:00:42;;;;;;;;;;;21.30;99.90;;;;;;5008547;28;19969;-74
2022/08/17 09:03:28;;;;;;;;;;;21.20;99.90;;;;;;5011105;28;19916;-74
2022/08/17 09:06:01;;;;;;;;;;;21.30;99.90;;;;;;4997596;28;19924;-73
2022/08/17 09:08:45;;;;;;;;;;;21.30;99.90;;;;;;5009155;28;20970;-75
2022/08/17 09:11:11;;;;;;;;;;;21.20;99.90;;;;;;5008974;28;19928;-75
2022/08/17 09:13:52;;;;;;;;;;;21.30;99.90;;;;;;5006205;28;19920;-76
2022/08/17 09:16:31;;;;;;;;;;;21.30;99.90;;;;;;5018179;28;20318;-72
2022/08/17 09:19:29;;;;;;;;;;;21.30;99.90;;;;;;5008391;28;20568;-76
2022/08/17 09:22:06;;;;;;;;;;;21.20;99.90;;;;;;4928598;28;19918;-76
2022/08/17 09:24:38;;;;;;;;;;;21.10;99.90;;;;;;4928167;28;19918;-76
2022/08/17 09:27:12;;;;;;;;;;;21.20;99.90;;;;;;4913418;28;20869;-72
2022/08/17 09:29:40;;;;;;;;;;;21.20;99.90;;;;;;4926607;28;20431;-75
2022/08/17 09:32:16;;;;;;;;;;;21.10;99.90;;;;;;4913051;28;19922;-75
2022/08/17 09:34:53;;;;;;;;;;;21.10;99.90;;;;;;4929150;28;20618;-75
2022/08/17 09:37:29;;;;;;;;;;;21.10;99.90;;;;;;4912897;28;19918;-75
2022/08/17 09:40:07;;;;;;;;;;;21.10;99.90;;;;;;4928157;28;19917;-74
2022/08/17 09:42:38;;;;;;;;;;;21.10;99.90;;;;;;4925325;28;19918;-74
2022/08/17 09:45:14;;;;;;;;;;;21.20;99.90;;;;;;4934089;28;20638;-76
2022/08/17 09:47:45;;;;;;;;;;;21.30;99.90;;;;;;4928931;28;20308;-74
2022/08/17 09:50:23;;;;;;;;;;;21.40;99.90;;;;;;4925703;28;19918;-77
2022/08/17 09:52:53;;;;;;;;;;;21.40;99.90;;;;;;4936593;28;19965;-74
2022/08/17 09:55:19;;;;;;;;;;;21.40;99.90;;;;;;4926268;28;19928;-76
2022/08/17 09:57:45;;;;;;;;;;;21.30;99.90;;;;;;4952832;28;20477;-76
2022/08/17 10:00:17;;;;;;;;;;;21.30;99.90;;;;;;5012686;28;20581;-76
2022/08/17 10:02:53;;;;;;;;;;;21.30;99.90;;;;;;5018895;28;19920;-75
2022/08/17 10:05:27;;;;;;;;;;;21.30;99.90;;;;;;5008336;28;19920;-77
2022/08/17 10:07:54;;;;;;;;;;;21.20;99.90;;;;;;5023695;28;20008;-75
2022/08/17 10:10:24;;;;;;;;;;;21.10;99.90;;;;;;5006809;28;19920;-75
2022/08/17 10:13:00;;;;;;;;;;;21.00;99.90;;;;;;5006072;28;20447;-75
2022/08/17 10:15:45;;;;;;;;;;;21.00;99.90;;;;;;5009720;28;19923;-79
2022/08/17 10:18:20;;;;;;;;;;;20.90;99.90;;;;;;5017745;28;19952;-74
2022/08/17 10:20:51;;;;;;;;;;;20.80;99.90;;;;;;5015874;28;19916;-79
2022/08/17 10:26:23;;;;;;;;;;;20.50;99.90;;;;;;5012401;28;19954;-78
2022/08/17 10:28:54;;;;;;;;;;;20.10;99.90;;;;;;5016899;28;19931;-76
2022/08/17 10:31:32;;;;;;;;;;;19.90;99.90;;;;;;5008332;28;19921;-80
2022/08/17 10:33:57;;;;;;;;;;;19.80;99.90;;;;;;5007462;28;19920;-72
2022/08/17 10:36:23;;;;;;;;;;;19.70;99.90;;;;;;5005990;28;19920;-78
2022/08/17 10:38:58;;;;;;;;;;;19.70;99.90;;;;;;5008608;28;20441;-77
2022/08/17 10:41:30;;;;;;;;;;;19.70;99.90;;;;;;5008681;28;19922;-74
2022/08/17 10:44:01;;;;;;;;;;;19.80;99.90;;;;;;5006865;28;20465;-76
2022/08/17 10:46:34;;;;;;;;;;;19.90;99.90;;;;;;5009156;28;19920;-79
2022/08/17 10:49:19;;;;;;;;;;;20.00;99.90;;;;;;5000330;28;19925;-72
2022/08/17 10:51:52;;;;;;;;;;;20.00;99.90;;;;;;5013769;28;20447;-77
2022/08/17 10:54:23;;;;;;;;;;;20.10;99.90;;;;;;5006841;28;20485;-73
2022/08/17 10:56:50;;;;;;;;;;;20.30;99.90;;;;;;5006888;28;20034;-76
2022/08/17 10:59:34;;;;;;;;;;;20.40;99.90;;;;;;5008548;28;19927;-71
2022/08/17 11:01:59;;;;;;;;;;;20.60;99.90;;;;;;5011724;28;19920;-74
2022/08/17 11:04:28;;;;;;;;;;;20.70;99.90;;;;;;5005904;28;19943;-76
2022/08/17 11:07:24;;;;;;;;;;;20.80;99.90;;;;;;5003994;28;19973;-75
2022/08/17 11:10:08;;;;;;;;;;;20.90;99.90;;;;;;5006230;28;19978;-74
2022/08/17 11:12:48;;;;;;;;;;;21.10;99.90;;;;;;5026285;28;19959;-72
2022/08/17 11:15:13;;;;;;;;;;;21.00;99.90;;;;;;5019029;28;19947;-73
2022/08/17 11:17:48;;;;;;;;;;;21.00;99.90;;;;;;5017825;28;20457;-74
2022/08/17 11:20:33;;;;;;;;;;;21.10;99.90;;;;;;5015705;28;19985;-74
2022/08/17 11:23:17;;;;;;;;;;;21.30;99.90;;;;;;5012215;28;19916;-75
2022/08/17 11:25:51;;;;;;;;;;;21.30;99.90;;;;;;5014236;28;19975;-74
2022/08/17 11:28:18;;;;;;;;;;;21.30;99.90;;;;;;5011876;28;19917;-74
2022/08/17 11:30:45;;;;;;;;;;;21.40;99.90;;;;;;5019312;28;19924;-74
2022/08/17 11:33:29;;;;;;;;;;;21.30;99.90;;;;;;5011266;28;19916;-73
2022/08/17 11:36:08;;;;;;;;;;;21.30;99.90;;;;;;5013169;28;19921;-74
2022/08/17 11:38:49;;;;;;;;;;;21.30;99.90;;;;;;5017735;28;19985;-73
2022/08/17 11:41:26;;;;;;;;;;;21.20;99.90;;;;;;5020693;28;19986;-75
2022/08/17 11:44:14;;;;;;;;;;;21.10;99.90;;;;;;5010876;28;19952;-74
2022/08/17 11:52:41;;;;;;;;;;;21.10;99.90;;;;;;5006831;28;20230;-73
2022/08/17 11:55:11;;;;;;;;;;;21.10;99.90;;;;;;5007831;28;20828;-73
2022/08/17 11:57:39;;;;;;;;;;;21.10;99.90;;;;;;5007761;28;21641;-75
2022/08/17 12:00:09;;;;;;;;;;;21.00;99.90;;;;;;5009790;28;19921;-74
2022/08/17 12:02:37;;;;;;;;;;;21.00;99.90;;;;;;5012522;28;20824;-75
2022/08/17 12:05:15;;;;;;;;;;;20.90;99.90;;;;;;5012440;28;20011;-74
2022/08/17 12:07:47;;;;;;;;;;;20.70;99.90;;;;;;5010605;28;19943;-75
2022/08/17 12:10:15;;;;;;;;;;;20.70;99.90;;;;;;5010087;28;20354;-74
2022/08/17 12:12:42;;;;;;;;;;;20.70;99.90;;;;;;5010806;28;20048;-73
2022/08/17 12:15:24;;;;;;;;;;;20.70;99.90;;;;;;5008237;28;19923;-73
2022/08/17 12:17:50;;;;;;;;;;;20.70;99.90;;;;;;5009715;28;20284;-73
2022/08/17 12:20:26;;;;;;;;;;;20.60;99.90;;;;;;5009497;28;20034;-74
2022/08/17 12:23:07;;;;;;;;;;;20.50;99.90;;;;;;5010683;28;19916;-75
2022/08/17 12:25:44;;;;;;;;;;;20.50;99.90;;;;;;5010289;28;19932;-73
2022/08/17 12:28:28;;;;;;;;;;;20.50;99.90;;;;;;5010019;28;19969;-73
2022/08/17 12:31:01;;;;;;;;;;;20.40;99.90;;;;;;5010214;28;19979;-74
2022/08/17 12:33:27;;;;;;;;;;;20.40;99.90;;;;;;5015795;28;20350;-74
2022/08/17 12:36:01;;;;;;;;;;;20.30;99.90;;;;;;5009987;28;19916;-75
2022/08/17 12:38:27;;;;;;;;;;;20.30;99.90;;;;;;5016030;28;20411;-73
2022/08/17 12:40:54;;;;;;;;;;;20.30;99.90;;;;;;5012227;28;19941;-75
2022/08/17 12:43:21;;;;;;;;;;;20.30;99.90;;;;;;5008948;28;20023;-74
2022/08/17 12:45:55;;;;;;;;;;;20.20;99.90;;;;;;5012617;28;19920;-71
2022/08/17 12:48:23;;;;;;;;;;;20.30;99.90;;;;;;5007739;28;19923;-72
2022/08/17 12:50:49;;;;;;;;;;;20.30;99.90;;;;;;5010461;28;19923;-75
2022/08/17 12:53:24;;;;;;;;;;;20.10;99.90;;;;;;5008707;28;19944;-73
2022/08/17 12:55:50;;;;;;;;;;;20.00;99.90;;;;;;5008058;28;20446;-77
2022/08/17 12:58:17;;;;;;;;;;;20.00;99.90;;;;;;5011182;28;19920;-71
2022/08/17 13:00:45;;;;;;;;;;;19.90;99.90;;;;;;5010859;28;20170;-74
2022/08/17 13:03:21;;;;;;;;;;;19.80;99.90;;;;;;5038623;28;19966;-75
2022/08/17 13:05:58;;;;;;;;;;;19.80;99.90;;;;;;5070136;28;20057;-74
2022/08/17 13:08:31;;;;;;;;;;;19.70;99.90;;;;;;5072502;28;19921;-73
2022/08/17 13:10:58;;;;;;;;;;;19.80;99.90;;;;;;5070931;28;19919;-77
2022/08/17 13:13:25;;;;;;;;;;;19.70;99.90;;;;;;5067722;28;19927;-80
2022/08/17 13:15:58;;;;;;;;;;;19.70;99.90;;;;;;5066125;28;19912;-82
2022/08/17 13:18:32;;;;;;;;;;;19.70;99.90;;;;;;5070276;28;19920;-72
2022/08/17 13:20:58;;;;;;;;;;;19.70;99.90;;;;;;5068504;28;19916;-78
2022/08/17 13:23:25;;;;;;;;;;;19.70;99.90;;;;;;5069193;28;19920;-80
2022/08/17 13:25:54;;;;;;;;;;;19.70;99.90;;;;;;5068563;28;19927;-76
2022/08/17 13:28:21;;;;;;;;;;;19.70;99.90;;;;;;5065360;28;19916;-75
2022/08/17 13:30:46;;;;;;;;;;;19.70;99.90;;;;;;5066946;28;19920;-74
2022/08/17 13:33:29;;;;;;;;;;;19.80;99.90;;;;;;5069455;28;19920;-75
2022/08/17 13:36:04;;;;;;;;;;;19.80;99.90;;;;;;5066530;28;19917;-75
2022/08/17 13:38:56;;;;;;;;;;;19.90;99.90;;;;;;5069292;28;19999;-75
2022/08/17 13:41:29;;;;;;;;;;;19.90;99.90;;;;;;5039254;28;19916;-74
2022/08/17 13:43:55;;;;;;;;;;;19.90;99.90;;;;;;5068764;28;20256;-77
2022/08/17 13:46:29;;;;;;;;;;;20.00;99.90;;;;;;5067606;28;19923;-74
2022/08/17 13:48:57;;;;;;;;;;;20.00;99.90;;;;;;5070064;28;20011;-73
2022/08/17 13:51:24;;;;;;;;;;;20.00;99.90;;;;;;5066934;28;19920;-75
2022/08/17 13:53:52;;;;;;;;;;;20.00;99.90;;;;;;5067600;28;19952;-74
2022/08/17 13:56:30;;;;;;;;;;;20.10;99.90;;;;;;5069343;28;19920;-73
2022/08/17 13:59:01;;;;;;;;;;;20.10;99.90;;;;;;5069315;28;19999;-73
2022/08/17 14:01:28;;;;;;;;;;;20.10;99.90;;;;;;5068386;28;19916;-72
2022/08/17 14:03:54;;;;;;;;;;;20.10;99.90;;;;;;5068266;28;20652;-73
2022/08/17 14:06:20;;;;;;;;;;;20.10;99.90;;;;;;5063667;28;19942;-74
2022/08/17 14:08:46;;;;;;;;;;;20.10;99.90;;;;;;5067820;28;19913;-74
2022/08/17 14:11:12;;;;;;;;;;;20.20;99.90;;;;;;5068719;28;19916;-74
2022/08/17 14:13:38;;;;;;;;;;;20.10;99.90;;;;;;5069622;28;20346;-75
2022/08/17 14:16:04;;;;;;;;;;;20.10;99.90;;;;;;5070413;28;19916;-73
2022/08/17 14:18:29;;;;;;;;;;;20.10;99.90;;;;;;5071169;28;19922;-75
2022/08/17 14:20:56;;;;;;;;;;;20.10;99.90;;;;;;5070646;28;19916;-75
2022/08/17 14:23:21;;;;;;;;;;;20.20;99.90;;;;;;5068955;28;19923;-74
2022/08/17 14:25:47;;;;;;;;;;;20.20;99.90;;;;;;5070171;28;20231;-75
2022/08/17 14:28:12;;;;;;;;;;;20.20;99.90;;;;;;5069516;28;20062;-75
2022/08/17 14:30:39;;;;;;;;;;;20.30;99.90;;;;;;5071926;28;19940;-75
2022/08/17 14:33:04;;;;;;;;;;;20.30;99.90;;;;;;5069467;28;19916;-73
2022/08/17 14:35:30;;;;;;;;;;;20.40;99.90;;;;;;5068177;28;20342;-74
2022/08/17 14:37:56;;;;;;;;;;;20.50;99.90;;;;;;5068897;28;19923;-76
2022/08/17 14:40:23;;;;;;;;;;;20.50;99.90;;;;;;5082106;28;19916;-73
2022/08/17 14:42:49;;;;;;;;;;;20.50;99.90;;;;;;5068038;28;19916;-73
2022/08/17 14:45:16;;;;;;;;;;;20.50;99.90;;;;;;5073027;28;19920;-73
2022/08/17 14:47:42;;;;;;;;;;;20.60;99.90;;;;;;5074388;28;20480;-75
2022/08/17 14:50:10;;;;;;;;;;;20.60;99.90;;;;;;5072964;28;20003;-74
2022/08/17 14:52:38;;;;;;;;;;;20.70;99.90;;;;;;5069333;28;20308;-76
2022/08/17 14:55:05;;;;;;;;;;;20.70;99.90;;;;;;5072477;28;20042;-75
2022/08/17 14:57:30;;;;;;;;;;;20.70;99.90;;;;;;5073888;28;19924;-74
2022/08/17 14:59:56;;;;;;;;;;;20.80;99.90;;;;;;5073690;28;19916;-75